Time;durP1;ratioP1;P1;durP2;ratioP2;P2;SDS_P1;SDS_P2;PMS_P1;PMS_P2;Temp;Humidity;BMP_temperature;BMP_pressure;BME280_temperature;BME280_humidity;BME280_pressure;Samples;Min_cycle;Max_cycle;Signal;HPM_P1;HPM_P2
2022/03/11 00:00:33;;;;;;;20.08;11.80;;;5.80;42.40;;;;;;5087697;28;20037;-62
2022/03/11 00:02:59;;;;;;;22.48;12.18;;;5.80;42.70;;;;;;5087923;28;20036;-61
2022/03/11 00:05:25;;;;;;;24.17;12.13;;;5.70;42.80;;;;;;5098803;28;20024;-62
2022/03/11 00:07:51;;;;;;;23.98;12.95;;;5.70;42.60;;;;;;5097704;28;20040;-61
2022/03/11 00:10:17;;;;;;;22.88;12.20;;;5.70;42.70;;;;;;5094779;28;20042;-61
2022/03/11 00:12:43;;;;;;;20.42;12.00;;;5.60;43.40;;;;;;5100464;28;20032;-60
2022/03/11 00:15:09;;;;;;;23.65;12.32;;;5.60;43.30;;;;;;5103295;28;20124;-61
2022/03/11 00:17:35;;;;;;;23.20;12.18;;;5.50;44.00;;;;;;5091562;28;20092;-62
2022/03/11 00:20:02;;;;;;;20.63;12.45;;;5.50;43.00;;;;;;5100305;28;20048;-62
2022/03/11 00:22:28;;;;;;;25.30;13.18;;;5.50;43.30;;;;;;5101742;28;20020;-61
2022/03/11 00:24:53;;;;;;;20.77;12.93;;;5.40;43.40;;;;;;5090281;28;20024;-60
2022/03/11 00:27:19;;;;;;;25.15;13.00;;;5.40;43.40;;;;;;5093030;28;20456;-61
2022/03/11 00:29:45;;;;;;;22.50;13.70;;;5.30;43.20;;;;;;5095360;28;20343;-61
2022/03/11 00:32:11;;;;;;;23.02;13.15;;;5.30;43.80;;;;;;5104264;28;20035;-60
2022/03/11 00:34:36;;;;;;;21.80;12.52;;;5.30;43.50;;;;;;5086204;28;20031;-61
2022/03/11 00:37:02;;;;;;;27.50;13.98;;;5.20;43.50;;;;;;5065371;28;20095;-61
2022/03/11 00:39:28;;;;;;;24.00;13.85;;;5.20;44.00;;;;;;5069615;28;20021;-60
2022/03/11 00:41:55;;;;;;;25.30;14.23;;;5.30;44.00;;;;;;5074666;28;20021;-60
2022/03/11 00:44:21;;;;;;;24.20;14.02;;;5.10;43.70;;;;;;5073710;28;20079;-60
2022/03/11 00:46:46;;;;;;;26.65;14.20;;;5.10;44.30;;;;;;5074293;28;20410;-61
2022/03/11 00:49:12;;;;;;;29.65;15.15;;;5.00;44.20;;;;;;5078263;28;20039;-60
2022/03/11 00:51:38;;;;;;;24.00;13.77;;;5.00;44.40;;;;;;5081367;28;20028;-60
2022/03/11 00:54:04;;;;;;;25.77;14.70;;;5.00;43.90;;;;;;5084871;28;20046;-61
2022/03/11 00:56:30;;;;;;;25.98;14.25;;;4.90;44.00;;;;;;5070025;28;20064;-61
2022/03/11 00:58:57;;;;;;;25.42;13.38;;;4.90;43.90;;;;;;5070207;28;20024;-60
2022/03/11 01:01:22;;;;;;;24.48;13.38;;;4.90;44.10;;;;;;5082982;28;20023;-61
2022/03/11 01:03:49;;;;;;;23.92;14.18;;;4.80;44.00;;;;;;5066771;28;20044;-60
2022/03/11 01:06:14;;;;;;;28.30;14.00;;;4.80;43.90;;;;;;5081559;28;20419;-61
2022/03/11 01:08:40;;;;;;;25.95;15.20;;;4.80;43.90;;;;;;5082737;28;20058;-60
2022/03/11 01:11:08;;;;;;;25.90;14.05;;;4.80;44.30;;;;;;5074500;28;20498;-61
2022/03/11 01:13:35;;;;;;;21.75;13.00;;;4.80;43.80;;;;;;5072731;28;20102;-60
2022/03/11 01:16:00;;;;;;;23.58;13.90;;;4.70;43.90;;;;;;5070205;28;20492;-61
2022/03/11 01:18:26;;;;;;;25.02;13.63;;;4.70;44.40;;;;;;5072817;28;20029;-60
2022/03/11 01:20:52;;;;;;;25.65;12.98;;;4.70;44.20;;;;;;5071386;28;20055;-60
2022/03/11 01:23:18;;;;;;;25.88;14.13;;;4.60;43.90;;;;;;5077060;28;20029;-61
2022/03/11 01:25:44;;;;;;;30.33;14.52;;;4.60;44.10;;;;;;5079956;28;20040;-60
2022/03/11 01:28:10;;;;;;;25.60;12.73;;;4.50;44.50;;;;;;5073928;28;20044;-60
2022/03/11 01:30:35;;;;;;;22.88;12.95;;;4.50;43.70;;;;;;5075098;28;20021;-61
2022/03/11 01:33:01;;;;;;;28.85;13.50;;;4.50;43.90;;;;;;5077918;28;20482;-60
2022/03/11 01:35:27;;;;;;;21.75;12.20;;;4.50;44.70;;;;;;5075388;28;20070;-60
2022/03/11 01:37:52;;;;;;;21.35;12.20;;;4.40;44.10;;;;;;5085558;28;20028;-62
2022/03/11 01:40:18;;;;;;;22.85;12.75;;;4.40;43.80;;;;;;5098419;28;20028;-61
2022/03/11 01:42:44;;;;;;;22.75;12.65;;;4.40;44.50;;;;;;5095595;28;20082;-61
2022/03/11 01:45:10;;;;;;;23.30;12.77;;;4.30;44.20;;;;;;5084281;28;20060;-61
2022/03/11 01:47:35;;;;;;;24.88;12.90;;;4.30;44.10;;;;;;5093477;28;20060;-62
2022/03/11 01:50:02;;;;;;;21.23;12.50;;;4.20;44.00;;;;;;5102693;28;20031;-61
2022/03/11 01:52:27;;;;;;;23.23;12.85;;;4.20;44.40;;;;;;5085631;28;20101;-60
2022/03/11 01:54:53;;;;;;;23.60;12.38;;;4.20;44.40;;;;;;5094508;28;20492;-61
2022/03/11 01:57:20;;;;;;;20.02;11.10;;;4.10;44.20;;;;;;5098692;28;20101;-60
2022/03/11 01:59:45;;;;;;;20.90;11.60;;;4.10;44.20;;;;;;5085980;28;20124;-61
2022/03/11 02:02:11;;;;;;;18.02;10.50;;;4.10;44.00;;;;;;5091590;28;20016;-60
2022/03/11 02:04:37;;;;;;;21.17;11.20;;;4.00;43.70;;;;;;5100022;28;20023;-61
2022/03/11 02:07:04;;;;;;;20.08;11.00;;;4.00;43.90;;;;;;5090139;28;20032;-61
2022/03/11 02:09:30;;;;;;;20.48;10.77;;;4.00;43.90;;;;;;5086461;28;20029;-60
2022/03/11 02:11:56;;;;;;;23.20;11.93;;;3.90;44.10;;;;;;5090741;28;20047;-61
2022/03/11 02:14:22;;;;;;;17.25;10.00;;;3.90;44.10;;;;;;5100889;28;20044;-60
2022/03/11 02:16:48;;;;;;;25.30;11.48;;;3.80;43.90;;;;;;5092612;28;20464;-61
2022/03/11 02:19:13;;;;;;;19.98;10.80;;;3.80;43.60;;;;;;5099117;28;20029;-60
2022/03/11 02:21:44;;;;;;;20.23;10.00;;;3.80;43.90;;;;;;5089884;28;20032;-60
2022/03/11 02:24:11;;;;;;;17.15;9.95;;;3.80;43.80;;;;;;5088015;28;20029;-60
2022/03/11 02:26:38;;;;;;;16.42;10.15;;;3.70;43.60;;;;;;5082954;28;20040;-62
2022/03/11 02:29:04;;;;;;;16.08;9.20;;;3.70;43.60;;;;;;5089465;28;20051;-61
2022/03/11 02:31:31;;;;;;;14.60;8.85;;;3.60;43.40;;;;;;5084501;28;20035;-60
2022/03/11 02:33:59;;;;;;;15.57;9.05;;;3.60;43.50;;;;;;5090585;28;20103;-60
2022/03/11 02:36:25;;;;;;;20.02;8.38;;;3.60;43.30;;;;;;5069669;28;20060;-61
2022/03/11 02:38:51;;;;;;;15.27;8.45;;;3.50;43.20;;;;;;5095964;28;20436;-61
2022/03/11 02:41:17;;;;;;;14.07;8.00;;;3.50;43.20;;;;;;5071192;28;20146;-60
2022/03/11 02:43:43;;;;;;;13.65;7.68;;;3.50;43.00;;;;;;5091797;28;20020;-60
2022/03/11 02:46:10;;;;;;;14.68;8.40;;;3.40;43.40;;;;;;5088173;28;20044;-61
2022/03/11 02:48:35;;;;;;;17.77;8.63;;;3.40;43.20;;;;;;5093796;28;20017;-60
2022/03/11 02:51:02;;;;;;;15.75;7.40;;;3.40;43.20;;;;;;5080840;28;20559;-62
2022/03/11 02:53:27;;;;;;;15.50;7.53;;;3.30;42.90;;;;;;5090106;28;20031;-60
2022/03/11 02:55:53;;;;;;;14.93;7.55;;;3.30;42.80;;;;;;5092492;28;20021;-61
2022/03/11 02:58:19;;;;;;;11.98;6.80;;;3.30;42.70;;;;;;5081870;28;20028;-60
2022/03/11 03:00:45;;;;;;;14.80;7.90;;;3.20;42.70;;;;;;5089049;28;20509;-60
2022/03/11 03:03:11;;;;;;;11.13;6.85;;;3.20;42.70;;;;;;5100409;28;20032;-61
2022/03/11 03:05:37;;;;;;;18.52;7.32;;;3.20;42.60;;;;;;5080058;28;20029;-60
2022/03/11 03:08:03;;;;;;;10.93;6.57;;;3.10;42.50;;;;;;5071840;28;20040;-60
2022/03/11 03:10:29;;;;;;;10.48;6.00;;;3.10;42.40;;;;;;5094094;28;20032;-60
2022/03/11 03:12:54;;;;;;;10.68;6.43;;;3.10;42.30;;;;;;5083794;28;20450;-61
2022/03/11 03:15:20;;;;;;;18.23;6.43;;;3.00;42.30;;;;;;5078452;28;20084;-60
2022/03/11 03:17:46;;;;;;;10.95;5.72;;;3.00;42.30;;;;;;5094455;28;20033;-61
2022/03/11 03:20:12;;;;;;;15.05;5.97;;;3.00;42.10;;;;;;5104196;28;20032;-60
2022/03/11 03:22:37;;;;;;;11.65;6.30;;;2.90;42.00;;;;;;5091670;28;20025;-60
2022/03/11 03:25:04;;;;;;;9.95;5.55;;;2.90;42.00;;;;;;5094836;28;20366;-60
2022/03/11 03:27:30;;;;;;;11.88;6.10;;;2.90;41.90;;;;;;5089553;28;20100;-60
2022/03/11 03:29:56;;;;;;;10.95;5.90;;;2.90;41.90;;;;;;5070218;28;20250;-60
2022/03/11 03:32:22;;;;;;;14.40;4.93;;;2.90;41.80;;;;;;5086442;28;20016;-61
2022/03/11 03:34:48;;;;;;;10.13;5.05;;;2.80;41.60;;;;;;5083010;28;20032;-60
2022/03/11 03:37:14;;;;;;;9.88;5.15;;;2.80;41.60;;;;;;5087452;28;20040;-61
2022/03/11 03:39:41;;;;;;;7.28;4.70;;;2.80;41.50;;;;;;5091841;28;20033;-60
2022/03/11 03:42:07;;;;;;;12.43;4.20;;;2.80;41.40;;;;;;5088426;28;20104;-62
2022/03/11 03:44:33;;;;;;;11.60;4.53;;;2.80;41.30;;;;;;5105654;28;20560;-61
2022/03/11 03:46:59;;;;;;;8.05;4.78;;;2.80;41.30;;;;;;5085306;28;20553;-60
2022/03/11 03:49:25;;;;;;;7.68;5.10;;;2.70;41.20;;;;;;5087547;28;20119;-60
2022/03/11 03:51:51;;;;;;;9.07;4.80;;;2.70;41.20;;;;;;5093806;28;20110;-61
2022/03/11 03:54:17;;;;;;;8.63;5.05;;;2.70;41.10;;;;;;5086520;28;20044;-61
2022/03/11 03:56:44;;;;;;;9.57;4.18;;;2.70;41.10;;;;;;5097167;28;20051;-60
2022/03/11 03:59:11;;;;;;;8.15;4.85;;;2.60;41.00;;;;;;5105324;28;20028;-61
2022/03/11 04:01:44;;;;;;;9.05;5.00;;;2.60;41.00;;;;;;5085274;28;20036;-61
2022/03/11 04:04:13;;;;;;;6.57;4.22;;;2.60;41.00;;;;;;5105532;28;20096;-61
2022/03/11 04:06:42;;;;;;;8.70;4.65;;;2.60;40.90;;;;;;5091274;28;20155;-61
2022/03/11 04:09:08;;;;;;;9.20;5.40;;;2.60;41.00;;;;;;5106284;28;20035;-61
2022/03/11 04:11:34;;;;;;;9.38;4.82;;;2.60;40.90;;;;;;5067317;28;20209;-60
2022/03/11 04:14:00;;;;;;;8.68;4.72;;;2.50;40.80;;;;;;5103960;28;20058;-60
2022/03/11 04:16:27;;;;;;;9.93;5.00;;;2.50;40.80;;;;;;5090036;28;20104;-60
2022/03/11 04:18:53;;;;;;;11.00;5.10;;;2.60;40.90;;;;;;5106132;28;20374;-60
2022/03/11 04:21:19;;;;;;;9.95;4.82;;;2.50;40.80;;;;;;5088905;28;20024;-60
2022/03/11 04:23:47;;;;;;;7.05;4.05;;;2.60;41.00;;;;;;5105790;28;20105;-61
2022/03/11 04:26:12;;;;;;;6.40;4.05;;;2.70;40.90;;;;;;5084437;28;20462;-61
2022/03/11 04:28:38;;;;;;;8.20;4.70;;;2.50;40.80;;;;;;5105161;28;20024;-61
2022/03/11 04:31:05;;;;;;;8.65;4.38;;;2.40;40.80;;;;;;5084794;28;20043;-61
2022/03/11 04:33:31;;;;;;;7.95;4.85;;;2.50;40.80;;;;;;5105177;28;20036;-60
2022/03/11 04:35:57;;;;;;;10.27;5.00;;;2.30;40.70;;;;;;5093213;28;20536;-61
2022/03/11 04:38:22;;;;;;;12.82;5.18;;;2.30;40.70;;;;;;5105142;28;20024;-61
2022/03/11 04:40:48;;;;;;;9.40;5.00;;;2.30;40.70;;;;;;5085771;28;20051;-61
2022/03/11 04:43:14;;;;;;;9.88;4.93;;;2.30;40.80;;;;;;5103708;28;20039;-62
2022/03/11 04:45:40;;;;;;;8.57;4.65;;;2.30;40.90;;;;;;5089340;28;20024;-61
2022/03/11 04:48:06;;;;;;;8.43;4.82;;;2.20;40.70;;;;;;5085887;28;20486;-62
2022/03/11 04:50:32;;;;;;;12.18;5.60;;;2.20;40.80;;;;;;5104916;28;20100;-61
2022/03/11 04:52:57;;;;;;;9.90;5.07;;;2.20;40.80;;;;;;5084624;28;20036;-61
2022/03/11 04:55:23;;;;;;;8.98;4.53;;;2.30;40.90;;;;;;5104780;28;20032;-61
2022/03/11 04:57:49;;;;;;;14.18;4.70;;;2.20;40.80;;;;;;5084328;28;20066;-61
2022/03/11 05:00:15;;;;;;;13.02;5.13;;;2.10;40.70;;;;;;5104921;28;20528;-61
2022/03/11 05:02:44;;;;;;;8.98;4.90;;;2.10;40.70;;;;;;5084229;28;20071;-61
2022/03/11 05:05:14;;;;;;;10.02;5.05;;;2.20;40.80;;;;;;5105831;28;20039;-61
2022/03/11 05:07:40;;;;;;;10.13;4.53;;;2.10;40.90;;;;;;5090826;28;20028;-61
2022/03/11 05:10:11;;;;;;;12.43;4.90;;;2.00;41.40;;;;;;5111282;28;20032;-61
2022/03/11 05:12:37;;;;;;;12.18;5.10;;;2.00;40.90;;;;;;5066706;28;20024;-61
2022/03/11 05:15:05;;;;;;;14.65;5.22;;;2.00;40.90;;;;;;5104852;28;20027;-61
2022/03/11 05:17:31;;;;;;;11.18;4.80;;;2.00;41.00;;;;;;5083853;28;20029;-63
2022/03/11 05:19:57;;;;;;;10.73;5.28;;;2.00;41.00;;;;;;5104265;28;20020;-61
2022/03/11 05:22:23;;;;;;;9.82;4.93;;;2.00;41.00;;;;;;5084129;28;20050;-61
2022/03/11 05:24:48;;;;;;;13.13;5.60;;;2.00;41.10;;;;;;5104267;28;20030;-61
2022/03/11 05:27:14;;;;;;;10.85;5.38;;;1.90;41.00;;;;;;5083745;28;20036;-61
2022/03/11 05:29:40;;;;;;;7.15;4.47;;;1.90;41.10;;;;;;5104008;28;20032;-62
2022/03/11 05:32:07;;;;;;;11.88;5.05;;;1.90;41.00;;;;;;5083890;28;20024;-60
2022/03/11 05:34:34;;;;;;;8.27;5.05;;;1.90;41.10;;;;;;5096014;28;20032;-61
2022/03/11 05:37:00;;;;;;;10.50;5.38;;;2.00;41.20;;;;;;5093280;28;20045;-61
2022/03/11 05:39:26;;;;;;;10.25;5.05;;;1.90;41.20;;;;;;5080384;28;20071;-61
2022/03/11 05:41:51;;;;;;;10.77;5.50;;;1.80;41.20;;;;;;5103676;28;20028;-61
2022/03/11 05:44:18;;;;;;;7.68;4.82;;;1.80;41.20;;;;;;5084153;28;20028;-62
2022/03/11 05:46:45;;;;;;;14.23;4.75;;;1.80;41.20;;;;;;5103856;28;20056;-61
2022/03/11 05:49:12;;;;;;;14.90;5.35;;;1.80;41.30;;;;;;5083813;28;20044;-61
2022/03/11 05:51:38;;;;;;;10.20;4.78;;;1.80;41.30;;;;;;5104320;28;20100;-61
2022/03/11 05:54:05;;;;;;;9.32;4.35;;;1.80;41.30;;;;;;5093740;28;20031;-61
2022/03/11 05:56:31;;;;;;;9.73;4.32;;;1.80;41.30;;;;;;5084545;28;20028;-61
2022/03/11 05:58:57;;;;;;;7.85;4.60;;;2.00;41.40;;;;;;5102576;28;20081;-61
2022/03/11 06:01:22;;;;;;;9.32;5.03;;;1.80;41.40;;;;;;5084814;28;20487;-61
2022/03/11 06:03:48;;;;;;;9.23;4.82;;;1.90;41.40;;;;;;5094668;28;20084;-61
2022/03/11 06:06:15;;;;;;;9.50;5.18;;;1.70;41.30;;;;;;5103809;28;20497;-61
2022/03/11 06:08:41;;;;;;;12.45;5.07;;;1.80;41.40;;;;;;5083662;28;20152;-60
2022/03/11 06:11:07;;;;;;;9.38;5.10;;;1.80;41.60;;;;;;5088453;28;20115;-61
2022/03/11 06:13:32;;;;;;;11.85;4.68;;;1.80;41.50;;;;;;5078812;28;20421;-61
2022/03/11 06:15:58;;;;;;;9.30;4.93;;;1.80;41.50;;;;;;5103660;28;20039;-60
2022/03/11 06:18:24;;;;;;;8.88;5.05;;;1.80;41.60;;;;;;5083615;28;20024;-61
2022/03/11 06:20:50;;;;;;;11.23;4.78;;;1.90;41.70;;;;;;5103559;28;20035;-61
2022/03/11 06:23:16;;;;;;;16.48;5.00;;;1.90;41.50;;;;;;5083570;28;20112;-61
2022/03/11 06:25:44;;;;;;;11.57;5.20;;;1.90;41.70;;;;;;5105603;28;20024;-61
2022/03/11 06:28:10;;;;;;;9.75;5.00;;;1.90;41.80;;;;;;5070894;28;20037;-61
2022/03/11 06:30:36;;;;;;;10.38;5.07;;;2.20;41.80;;;;;;5108225;28;20026;-62
2022/03/11 06:33:01;;;;;;;11.23;5.07;;;2.00;41.70;;;;;;5088051;28;20088;-61
2022/03/11 06:35:27;;;;;;;9.77;4.80;;;2.10;41.80;;;;;;5097312;28;20050;-61
2022/03/11 06:37:54;;;;;;;11.02;5.45;;;2.20;41.70;;;;;;5107153;28;20075;-62
2022/03/11 06:40:20;;;;;;;8.70;4.45;;;2.20;41.60;;;;;;5107277;28;20032;-61
2022/03/11 06:42:48;;;;;;;12.40;5.57;;;2.30;41.70;;;;;;5087808;28;20102;-61
2022/03/11 06:45:16;;;;;;;9.75;5.05;;;2.30;41.70;;;;;;5086654;28;20116;-62
2022/03/11 06:47:42;;;;;;;10.90;5.57;;;2.40;41.70;;;;;;5107549;28;20043;-61
2022/03/11 06:50:08;;;;;;;9.55;5.57;;;2.50;41.90;;;;;;5085260;28;20051;-61
2022/03/11 06:52:34;;;;;;;13.60;5.38;;;2.50;41.90;;;;;;5107061;28;20024;-61
2022/03/11 06:55:01;;;;;;;11.70;5.15;;;2.50;41.80;;;;;;5086832;28;20035;-61
2022/03/11 06:57:26;;;;;;;10.23;5.43;;;2.60;41.80;;;;;;5093223;28;20098;-60
2022/03/11 06:59:52;;;;;;;10.93;5.05;;;2.70;42.00;;;;;;5089124;28;20032;-61
2022/03/11 07:02:18;;;;;;;11.85;4.95;;;2.70;41.90;;;;;;5106629;28;20025;-62
2022/03/11 07:04:44;;;;;;;11.93;5.15;;;2.90;41.80;;;;;;5105837;28;20038;-61
2022/03/11 07:07:10;;;;;;;11.57;5.55;;;2.90;41.90;;;;;;5107323;28;20110;-61
2022/03/11 07:09:36;;;;;;;9.00;4.88;;;2.90;41.80;;;;;;5086528;28;20025;-60
2022/03/11 07:12:03;;;;;;;11.85;5.55;;;3.00;41.70;;;;;;5088477;28;20097;-60
2022/03/11 07:14:30;;;;;;;11.80;5.15;;;3.10;41.70;;;;;;5086372;28;20092;-61
2022/03/11 07:16:57;;;;;;;11.88;4.95;;;3.20;41.70;;;;;;5106702;28;20054;-61
2022/03/11 07:19:29;;;;;;;10.52;5.43;;;3.30;41.50;;;;;;5086115;28;20020;-62
2022/03/11 07:21:55;;;;;;;10.20;5.20;;;3.40;41.50;;;;;;5107209;28;20115;-61
2022/03/11 07:24:21;;;;;;;10.75;5.70;;;3.50;41.60;;;;;;5086372;28;20028;-61
2022/03/11 07:26:47;;;;;;;13.52;5.68;;;3.60;41.60;;;;;;5098270;28;20163;-61
2022/03/11 07:29:12;;;;;;;10.57;5.95;;;3.70;41.50;;;;;;5094017;28;20040;-63
2022/03/11 07:31:38;;;;;;;11.35;5.63;;;3.80;41.50;;;;;;5106329;28;20035;-62
2022/03/11 07:34:04;;;;;;;12.43;5.78;;;3.90;41.30;;;;;;5092013;28;20023;-62
2022/03/11 07:36:30;;;;;;;10.02;6.03;;;4.00;41.30;;;;;;5105707;28;20117;-61
2022/03/11 07:38:57;;;;;;;12.98;6.43;;;4.00;41.10;;;;;;5094726;28;20024;-61
2022/03/11 07:41:22;;;;;;;11.68;6.03;;;4.10;41.20;;;;;;5079714;28;20107;-62
2022/03/11 07:43:48;;;;;;;11.52;5.80;;;4.20;41.20;;;;;;5106023;28;20047;-62
2022/03/11 07:46:14;;;;;;;15.15;6.75;;;4.30;41.10;;;;;;5076009;28;20036;-61
2022/03/11 07:48:41;;;;;;;13.00;6.43;;;4.30;41.00;;;;;;5087099;28;20032;-61
2022/03/11 07:51:07;;;;;;;9.35;5.80;;;4.40;41.00;;;;;;5091353;28;20032;-61
2022/03/11 07:53:34;;;;;;;11.88;5.80;;;4.50;41.00;;;;;;5106145;28;20095;-61
2022/03/11 07:55:59;;;;;;;10.73;5.65;;;4.60;41.00;;;;;;5067783;28;20028;-61
2022/03/11 07:58:25;;;;;;;13.50;6.45;;;4.70;41.00;;;;;;5087060;28;20051;-62
2022/03/11 08:00:52;;;;;;;12.18;6.05;;;4.80;41.00;;;;;;5093252;28;20043;-61
2022/03/11 08:03:19;;;;;;;11.32;6.55;;;4.80;40.90;;;;;;5105821;28;20024;-61
2022/03/11 08:05:45;;;;;;;12.93;6.53;;;4.90;40.80;;;;;;5095916;28;20031;-61
2022/03/11 08:08:11;;;;;;;12.70;5.95;;;5.10;40.90;;;;;;5106391;28;20040;-60
2022/03/11 08:10:37;;;;;;;9.90;5.78;;;5.20;41.30;;;;;;5085389;28;20017;-61
2022/03/11 08:13:04;;;;;;;10.55;5.70;;;5.20;40.60;;;;;;5105332;28;20114;-61
2022/03/11 08:15:30;;;;;;;14.73;6.72;;;5.30;40.50;;;;;;5085278;28;20024;-61
2022/03/11 08:17:56;;;;;;;11.13;6.00;;;5.40;40.50;;;;;;5105367;28;20078;-61
2022/03/11 08:20:21;;;;;;;13.32;6.57;;;5.50;40.40;;;;;;5085037;28;20021;-61
2022/03/11 08:22:48;;;;;;;11.70;6.25;;;5.50;40.50;;;;;;5105467;28;20024;-62
2022/03/11 08:25:15;;;;;;;12.23;6.00;;;5.70;40.40;;;;;;5090939;28;20083;-61
2022/03/11 08:27:41;;;;;;;15.80;6.22;;;5.80;40.40;;;;;;5090059;28;20028;-61
2022/03/11 08:30:09;;;;;;;11.10;6.18;;;5.90;40.40;;;;;;5098835;28;20043;-63
2022/03/11 08:32:35;;;;;;;9.88;5.60;;;6.00;40.30;;;;;;5105129;28;20020;-61
2022/03/11 08:35:01;;;;;;;9.80;5.53;;;6.20;40.30;;;;;;5085926;28;20032;-61
2022/03/11 08:37:27;;;;;;;11.77;6.63;;;6.30;40.10;;;;;;5105720;28;20023;-61
2022/03/11 08:39:53;;;;;;;13.13;6.22;;;6.40;40.00;;;;;;5066814;28;20029;-61
2022/03/11 08:42:18;;;;;;;10.05;6.05;;;6.50;39.80;;;;;;5092546;28;20028;-61
2022/03/11 08:44:44;;;;;;;12.60;6.53;;;6.60;39.70;;;;;;5103841;28;20024;-61
2022/03/11 08:47:10;;;;;;;18.33;6.30;;;6.70;39.60;;;;;;5104459;28;20054;-62
2022/03/11 08:49:36;;;;;;;18.67;6.53;;;6.80;39.60;;;;;;5084490;28;20024;-61
2022/03/11 08:52:02;;;;;;;13.50;6.70;;;6.90;39.60;;;;;;5105076;28;20024;-62
2022/03/11 08:54:28;;;;;;;10.70;6.00;;;7.00;39.50;;;;;;5085420;28;20037;-62
2022/03/11 08:56:54;;;;;;;10.90;6.10;;;7.10;39.30;;;;;;5104252;28;20106;-61
2022/03/11 08:59:21;;;;;;;10.30;6.70;;;7.20;39.30;;;;;;5085557;28;20055;-62
2022/03/11 09:01:48;;;;;;;11.18;6.78;;;7.30;39.20;;;;;;5084755;28;20087;-62
2022/03/11 09:04:13;;;;;;;19.55;7.18;;;7.40;39.30;;;;;;5104625;28;20111;-62
2022/03/11 09:06:39;;;;;;;9.35;6.22;;;7.50;39.00;;;;;;5084450;28;20086;-62
2022/03/11 09:09:05;;;;;;;13.40;6.70;;;7.60;39.20;;;;;;5104447;28;20055;-61
2022/03/11 09:11:32;;;;;;;15.73;7.50;;;7.70;39.10;;;;;;5066160;28;20032;-61
2022/03/11 09:13:58;;;;;;;16.27;7.15;;;7.80;39.00;;;;;;5104762;28;20085;-62
2022/03/11 09:16:24;;;;;;;10.70;6.68;;;7.90;38.90;;;;;;5084191;28;20114;-61
2022/03/11 09:18:49;;;;;;;12.95;6.68;;;8.00;38.70;;;;;;5104294;28;20039;-62
2022/03/11 09:21:16;;;;;;;13.27;6.88;;;8.10;38.60;;;;;;5084091;28;20024;-61
2022/03/11 09:23:42;;;;;;;14.35;7.13;;;8.20;38.60;;;;;;5104054;28;20031;-62
2022/03/11 09:26:08;;;;;;;13.02;6.82;;;8.20;38.50;;;;;;5095376;28;20039;-62
2022/03/11 09:28:34;;;;;;;9.90;6.53;;;8.30;38.50;;;;;;5104271;28;20035;-61
2022/03/11 09:31:01;;;;;;;17.33;6.90;;;8.30;39.00;;;;;;5085010;28;20032;-62
2022/03/11 09:33:27;;;;;;;12.13;6.97;;;8.50;38.20;;;;;;5110615;28;20051;-62
2022/03/11 09:35:52;;;;;;;14.20;7.13;;;8.50;38.10;;;;;;5096614;28;20056;-62
2022/03/11 09:38:18;;;;;;;13.52;7.55;;;8.60;38.30;;;;;;5086401;28;20040;-62
2022/03/11 09:40:45;;;;;;;14.27;7.75;;;8.70;38.20;;;;;;5092602;28;20025;-61
2022/03/11 09:43:12;;;;;;;11.73;7.15;;;8.80;37.90;;;;;;5067720;28;20029;-61
2022/03/11 09:45:38;;;;;;;16.20;7.47;;;8.90;37.90;;;;;;5099312;28;20536;-61
2022/03/11 09:48:05;;;;;;;14.05;7.43;;;9.00;37.80;;;;;;5083424;28;20128;-61
2022/03/11 09:50:31;;;;;;;13.80;7.18;;;9.10;37.70;;;;;;5103792;28;20028;-62
2022/03/11 09:52:58;;;;;;;12.00;8.20;;;9.20;37.60;;;;;;5083785;28;20386;-61
2022/03/11 09:55:24;;;;;;;12.15;6.43;;;9.20;37.60;;;;;;5104260;28;20032;-61
2022/03/11 09:57:50;;;;;;;13.98;6.55;;;9.30;37.40;;;;;;5087041;28;20394;-61
2022/03/11 10:00:16;;;;;;;15.50;8.30;;;9.40;37.40;;;;;;5107501;28;20054;-62
2022/03/11 10:02:44;;;;;;;11.43;6.35;;;9.40;37.50;;;;;;5087563;28;20029;-61
2022/03/11 10:05:10;;;;;;;11.15;6.63;;;9.50;38.00;;;;;;5108589;28;20029;-62
2022/03/11 10:07:35;;;;;;;13.98;7.70;;;9.60;37.40;;;;;;5087439;28;20078;-63
2022/03/11 10:10:19;;;;;;;11.38;7.47;;;9.70;38.00;;;;;;5100320;28;20367;-60
2022/03/11 10:12:47;;;;;;;12.48;7.68;;;9.90;36.90;;;;;;5091309;28;20036;-62
2022/03/11 10:15:16;;;;;;;12.77;7.68;;;9.90;36.80;;;;;;5108404;28;20116;-63
2022/03/11 10:17:44;;;;;;;11.90;7.28;;;10.00;36.80;;;;;;5068579;28;20154;-61
2022/03/11 10:20:12;;;;;;;13.50;8.05;;;10.10;36.90;;;;;;5107990;28;20039;-62
2022/03/11 10:22:45;;;;;;;14.95;7.55;;;10.20;36.60;;;;;;5087159;28;20021;-61
2022/03/11 10:25:19;;;;;;;16.27;8.13;;;10.30;36.90;;;;;;5068156;28;20522;-62
2022/03/11 10:28:04;;;;;;;13.45;8.07;;;10.30;36.60;;;;;;5105485;28;20062;-62
2022/03/11 10:30:40;;;;;;;12.10;7.03;;;10.50;36.40;;;;;;5067420;28;20048;-63
2022/03/11 10:33:08;;;;;;;11.93;6.95;;;10.60;36.40;;;;;;5087056;28;20050;-62
2022/03/11 10:35:38;;;;;;;12.95;7.45;;;10.70;36.20;;;;;;5095240;28;20067;-61
2022/03/11 10:38:18;;;;;;;12.02;7.85;;;10.80;36.00;;;;;;5106552;28;20024;-61
2022/03/11 10:40:55;;;;;;;12.52;7.35;;;10.80;36.10;;;;;;5067818;28;20036;-62
2022/03/11 10:43:25;;;;;;;14.48;7.60;;;10.90;35.80;;;;;;5107464;28;20032;-61
2022/03/11 10:45:53;;;;;;;14.18;7.57;;;11.00;35.90;;;;;;5017836;28;20537;-61
2022/03/11 10:48:38;;;;;;;12.75;7.22;;;11.10;35.80;;;;;;5107913;28;20024;-61
2022/03/11 10:51:04;;;;;;;14.35;7.43;;;11.10;36.00;;;;;;5068520;28;20037;-61
2022/03/11 10:53:38;;;;;;;13.23;8.00;;;11.20;35.80;;;;;;5093300;28;20046;-61
2022/03/11 10:56:07;;;;;;;17.10;7.90;;;11.30;35.50;;;;;;5069147;28;20036;-61
2022/03/11 10:58:34;;;;;;;14.73;6.97;;;11.40;35.60;;;;;;5107653;28;20024;-63
2022/03/11 11:01:00;;;;;;;11.57;7.78;;;11.40;35.70;;;;;;5087456;28;20020;-62
2022/03/11 11:03:26;;;;;;;13.77;7.28;;;11.50;35.30;;;;;;5107417;28;20035;-61
2022/03/11 11:05:52;;;;;;;16.95;8.52;;;11.60;35.50;;;;;;5086132;28;20033;-62
2022/03/11 11:08:18;;;;;;;13.70;7.95;;;11.70;35.40;;;;;;5106221;28;20059;-62
2022/03/11 11:10:45;;;;;;;11.75;7.03;;;11.80;35.50;;;;;;5068505;28;20040;-62
2022/03/11 11:13:11;;;;;;;11.88;7.47;;;11.90;35.30;;;;;;5086124;28;20033;-62
2022/03/11 11:15:41;;;;;;;13.05;7.65;;;12.00;35.10;;;;;;5086773;28;20031;-62
2022/03/11 11:18:13;;;;;;;11.98;7.53;;;12.00;34.90;;;;;;5086899;28;20025;-62
2022/03/11 11:20:49;;;;;;;32.33;8.20;;;12.10;34.90;;;;;;5106368;28;20024;-62
2022/03/11 11:23:16;;;;;;;17.60;7.45;;;12.20;34.70;;;;;;5085946;28;20092;-63
2022/03/11 11:25:43;;;;;;;19.58;8.10;;;12.30;34.90;;;;;;5106264;28;20024;-62
2022/03/11 11:28:20;;;;;;;12.38;7.55;;;12.40;34.90;;;;;;5085994;28;20036;-61
2022/03/11 11:30:50;;;;;;;14.88;8.20;;;12.60;34.90;;;;;;5066378;28;20075;-61
2022/03/11 11:33:18;;;;;;;16.10;7.30;;;12.60;34.30;;;;;;5067501;28;20102;-62
2022/03/11 11:35:45;;;;;;;17.80;8.50;;;12.70;34.50;;;;;;5095697;28;20055;-61
2022/03/11 11:38:29;;;;;;;13.73;7.70;;;12.80;34.00;;;;;;5086540;28;20046;-63
2022/03/11 11:40:57;;;;;;;13.30;7.07;;;12.90;33.90;;;;;;5104744;28;20275;-62
2022/03/11 11:43:28;;;;;;;12.60;8.10;;;13.00;34.20;;;;;;5088890;28;20033;-62
2022/03/11 11:46:03;;;;;;;12.23;7.95;;;13.10;33.90;;;;;;5077877;28;20085;-62
2022/03/11 11:48:32;;;;;;;11.68;7.50;;;13.20;33.50;;;;;;5105391;28;20148;-61
2022/03/11 11:51:01;;;;;;;13.68;8.18;;;13.30;33.70;;;;;;5086819;28;20028;-61
2022/03/11 11:53:40;;;;;;;11.18;7.68;;;13.40;33.70;;;;;;5094643;28;20084;-61
2022/03/11 11:56:29;;;;;;;12.00;7.50;;;13.50;33.60;;;;;;5066142;28;20028;-61
2022/03/11 11:58:56;;;;;;;12.35;8.38;;;13.60;33.00;;;;;;5089277;28;20024;-61
2022/03/11 12:01:44;;;;;;;12.77;7.82;;;13.60;33.50;;;;;;5105740;28;20115;-62
2022/03/11 12:04:36;;;;;;;14.52;7.88;;;13.80;33.40;;;;;;5085180;28;20105;-61
2022/03/11 12:07:09;;;;;;;12.60;7.53;;;13.90;33.10;;;;;;5066052;28;20072;-62
2022/03/11 12:10:00;;;;;;;16.20;10.98;;;14.00;33.10;;;;;;5104971;28;20162;-62
2022/03/11 12:12:26;;;;;;;11.15;7.40;;;14.10;33.20;;;;;;5068595;28;20056;-61
2022/03/11 12:15:01;;;;;;;14.70;8.10;;;14.30;33.10;;;;;;5106099;28;20028;-62
2022/03/11 12:17:48;;;;;;;12.98;7.65;;;14.40;32.50;;;;;;5086628;28;20035;-62
2022/03/11 12:20:36;;;;;;;13.73;8.23;;;14.50;32.20;;;;;;5105960;28;20024;-61
2022/03/11 12:23:09;;;;;;;10.95;7.35;;;14.60;31.90;;;;;;5078776;28;20024;-63
2022/03/11 12:25:36;;;;;;;11.90;7.50;;;14.70;32.40;;;;;;5106393;28;20477;-62
2022/03/11 12:28:05;;;;;;;10.52;7.18;;;14.80;32.40;;;;;;5084590;28;20518;-61
2022/03/11 12:30:53;;;;;;;13.40;7.90;;;14.80;31.80;;;;;;5105487;28;20081;-62
2022/03/11 12:33:23;;;;;;;12.77;7.57;;;14.90;31.50;;;;;;5083366;28;20506;-63
2022/03/11 12:35:52;;;;;;;12.40;7.32;;;14.90;32.00;;;;;;5093856;28;20058;-62
2022/03/11 12:38:29;;;;;;;11.63;7.72;;;15.10;31.90;;;;;;5084678;28;20031;-62
2022/03/11 12:41:07;;;;;;;10.55;7.75;;;15.20;31.60;;;;;;5068000;28;20188;-62
2022/03/11 12:43:33;;;;;;;10.60;7.45;;;15.30;31.10;;;;;;5075872;28;20040;-62
2022/03/11 12:46:01;;;;;;;16.77;6.95;;;15.30;31.10;;;;;;5071358;28;20516;-62